sensor_id;sensor_type;location;lat;lon;timestamp;pressure;altitude;pressure_sealevel;temperature;humidity
9009;BME280;62813;51.424;6.762;2022-11-20T00:01:18;101047.53;;;1.68;68.48
9009;BME280;62813;51.424;6.762;2022-11-20T00:03:45;101050.97;;;1.69;68.67
9009;BME280;62813;51.424;6.762;2022-11-20T00:06:14;101052.66;;;1.67;68.55
9009;BME280;62813;51.424;6.762;2022-11-20T00:08:41;101052.66;;;1.65;68.47
9009;BME280;62813;51.424;6.762;2022-11-20T00:11:13;101051.81;;;1.63;68.75
9009;BME280;62813;51.424;6.762;2022-11-20T00:13:45;101053.50;;;1.61;68.76
9009;BME280;62813;51.424;6.762;2022-11-20T00:16:14;101056.91;;;1.60;68.68
9009;BME280;62813;51.424;6.762;2022-11-20T00:18:41;101053.50;;;1.58;69.16
9009;BME280;62813;51.424;6.762;2022-11-20T00:21:14;101052.66;;;1.59;69.32
9009;BME280;62813;51.424;6.762;2022-11-20T00:23:41;101053.50;;;1.60;69.02
9009;BME280;62813;51.424;6.762;2022-11-20T00:26:14;101049.25;;;1.57;69.04
9009;BME280;62813;51.424;6.762;2022-11-20T00:28:41;101054.34;;;1.51;68.47
9009;BME280;62813;51.424;6.762;2022-11-20T00:33:37;101051.78;;;1.40;69.03
9009;BME280;62813;51.424;6.762;2022-11-20T00:36:08;101055.22;;;1.41;69.09
9009;BME280;62813;51.424;6.762;2022-11-20T00:38:35;101052.66;;;1.42;69.33
9009;BME280;62813;51.424;6.762;2022-11-20T00:41:05;101051.81;;;1.42;69.55
9009;BME280;62813;51.424;6.762;2022-11-20T00:43:32;101045.81;;;1.43;69.71
9009;BME280;62813;51.424;6.762;2022-11-20T00:46:05;101047.53;;;1.47;69.63
9009;BME280;62813;51.424;6.762;2022-11-20T00:48:32;101042.41;;;1.44;69.23
9009;BME280;62813;51.424;6.762;2022-11-20T00:50:59;101041.56;;;1.45;69.64
9009;BME280;62813;51.424;6.762;2022-11-20T00:53:26;101033.91;;;1.48;69.63
9009;BME280;62813;51.424;6.762;2022-11-20T00:56:03;101042.41;;;1.44;69.34
9009;BME280;62813;51.424;6.762;2022-11-20T00:58:35;101035.59;;;1.46;69.53
9009;BME280;62813;51.424;6.762;2022-11-20T01:01:20;101036.47;;;1.48;69.58
9009;BME280;62813;51.424;6.762;2022-11-20T01:03:49;101033.91;;;1.49;69.97
9009;BME280;62813;51.424;6.762;2022-11-20T01:06:24;101028.78;;;1.51;69.62
9009;BME280;62813;51.424;6.762;2022-11-20T01:08:54;101028.75;;;1.40;69.47
9009;BME280;62813;51.424;6.762;2022-11-20T01:11:26;101030.47;;;1.43;69.82
9009;BME280;62813;51.424;6.762;2022-11-20T01:13:54;101028.78;;;1.42;69.89
9009;BME280;62813;51.424;6.762;2022-11-20T01:16:27;101021.09;;;1.42;69.92
9009;BME280;62813;51.424;6.762;2022-11-20T01:18:56;101019.38;;;1.39;69.98
9009;BME280;62813;51.424;6.762;2022-11-20T01:21:34;101023.66;;;1.39;70.12
9009;BME280;62813;51.424;6.762;2022-11-20T01:24:02;101026.22;;;1.36;69.91
9009;BME280;62813;51.424;6.762;2022-11-20T01:26:31;101015.13;;;1.37;69.77
9009;BME280;62813;51.424;6.762;2022-11-20T01:28:58;101017.69;;;1.38;69.64
9009;BME280;62813;51.424;6.762;2022-11-20T01:31:30;101018.53;;;1.42;69.62
9009;BME280;62813;51.424;6.762;2022-11-20T01:34:00;101021.09;;;1.42;69.36
9009;BME280;62813;51.424;6.762;2022-11-20T01:36:29;101026.19;;;1.33;69.09
9009;BME280;62813;51.424;6.762;2022-11-20T01:38:58;101023.66;;;1.36;69.43
9009;BME280;62813;51.424;6.762;2022-11-20T01:41:27;101026.19;;;1.37;69.44
9009;BME280;62813;51.424;6.762;2022-11-20T01:44:16;101021.94;;;1.32;69.44
9009;BME280;62813;51.424;6.762;2022-11-20T01:47:00;101017.66;;;1.32;69.71
9009;BME280;62813;51.424;6.762;2022-11-20T01:49:39;101018.50;;;1.33;69.91
9009;BME280;62813;51.424;6.762;2022-11-20T01:52:18;101023.63;;;1.40;70.18
9009;BME280;62813;51.424;6.762;2022-11-20T01:55:08;101016.81;;;1.47;70.05
9009;BME280;62813;51.424;6.762;2022-11-20T01:57:35;101014.28;;;1.51;70.11
9009;BME280;62813;51.424;6.762;2022-11-20T02:00:09;101011.72;;;1.56;69.99
9009;BME280;62813;51.424;6.762;2022-11-20T02:02:37;101011.72;;;1.59;70.21
9009;BME280;62813;51.424;6.762;2022-11-20T02:05:22;100998.09;;;1.63;69.77
9009;BME280;62813;51.424;6.762;2022-11-20T02:07:50;101001.47;;;1.67;69.95
9009;BME280;62813;51.424;6.762;2022-11-20T02:10:16;101007.47;;;1.69;69.79
9009;BME280;62813;51.424;6.762;2022-11-20T02:12:43;101006.59;;;1.71;69.98
9009;BME280;62813;51.424;6.762;2022-11-20T02:15:30;100998.06;;;1.77;70.13
9009;BME280;62813;51.424;6.762;2022-11-20T02:17:58;100986.97;;;1.78;69.98
9009;BME280;62813;51.424;6.762;2022-11-20T02:20:25;100989.53;;;1.76;69.33
9009;BME280;62813;51.424;6.762;2022-11-20T02:23:05;100986.13;;;1.74;69.63
9009;BME280;62813;51.424;6.762;2022-11-20T02:25:37;100981.84;;;1.75;69.99
9009;BME280;62813;51.424;6.762;2022-11-20T02:28:05;100986.97;;;1.78;69.69
9009;BME280;62813;51.424;6.762;2022-11-20T02:30:31;100978.44;;;1.79;70.16
9009;BME280;62813;51.424;6.762;2022-11-20T02:32:58;100981.84;;;1.84;70.29
9009;BME280;62813;51.424;6.762;2022-11-20T02:37:54;100979.28;;;1.90;69.98
9009;BME280;62813;51.424;6.762;2022-11-20T02:40:21;100981.84;;;1.92;70.01
9009;BME280;62813;51.424;6.762;2022-11-20T02:42:54;100977.59;;;1.91;70.20
9009;BME280;62813;51.424;6.762;2022-11-20T02:45:21;100975.88;;;1.93;69.83
9009;BME280;62813;51.424;6.762;2022-11-20T02:47:49;100981.00;;;1.91;69.81
9009;BME280;62813;51.424;6.762;2022-11-20T02:50:15;100975.84;;;1.90;69.74
9009;BME280;62813;51.424;6.762;2022-11-20T02:52:42;100980.16;;;1.91;69.98
9009;BME280;62813;51.424;6.762;2022-11-20T02:55:09;100972.44;;;1.94;69.98
9009;BME280;62813;51.424;6.762;2022-11-20T02:57:36;100981.81;;;1.95;69.98
9009;BME280;62813;51.424;6.762;2022-11-20T03:00:04;100985.25;;;1.89;69.80
9009;BME280;62813;51.424;6.762;2022-11-20T03:02:31;100967.34;;;1.82;69.88
9009;BME280;62813;51.424;6.762;2022-11-20T03:04:58;100969.91;;;1.86;69.88
9009;BME280;62813;51.424;6.762;2022-11-20T03:07:25;100971.59;;;1.87;70.16
9009;BME280;62813;51.424;6.762;2022-11-20T03:09:51;100969.03;;;1.92;70.39
9009;BME280;62813;51.424;6.762;2022-11-20T03:12:18;100973.28;;;1.96;70.78
9009;BME280;62813;51.424;6.762;2022-11-20T03:14:44;100969.03;;;1.93;70.24
9009;BME280;62813;51.424;6.762;2022-11-20T03:17:17;100975.84;;;1.96;70.36
9009;BME280;62813;51.424;6.762;2022-11-20T03:19:44;100970.72;;;1.99;70.63
9009;BME280;62813;51.424;6.762;2022-11-20T03:22:11;100974.97;;;1.97;70.49
9009;BME280;62813;51.424;6.762;2022-11-20T03:24:37;100975.84;;;1.99;70.36
9009;BME280;62813;51.424;6.762;2022-11-20T03:27:04;100967.31;;;2.00;70.62
9009;BME280;62813;51.424;6.762;2022-11-20T03:29:30;100970.75;;;1.93;70.29
9009;BME280;62813;51.424;6.762;2022-11-20T03:31:56;100972.41;;;1.97;70.89
9009;BME280;62813;51.424;6.762;2022-11-20T03:34:23;100971.59;;;1.99;70.84
9009;BME280;62813;51.424;6.762;2022-11-20T03:36:50;100971.56;;;2.01;70.59
9009;BME280;62813;51.424;6.762;2022-11-20T03:39:16;100963.88;;;2.02;71.04
9009;BME280;62813;51.424;6.762;2022-11-20T03:41:43;100966.44;;;2.05;71.23
9009;BME280;62813;51.424;6.762;2022-11-20T03:44:10;100966.44;;;2.08;71.35
9009;BME280;62813;51.424;6.762;2022-11-20T03:46:37;100968.16;;;2.11;71.06
9009;BME280;62813;51.424;6.762;2022-11-20T03:49:04;100967.28;;;2.12;70.92
9009;BME280;62813;51.424;6.762;2022-11-20T03:51:34;100956.19;;;2.13;70.87
9009;BME280;62813;51.424;6.762;2022-11-20T03:54:04;100960.41;;;2.17;71.12
9009;BME280;62813;51.424;6.762;2022-11-20T03:56:32;100957.00;;;2.21;71.19
9009;BME280;62813;51.424;6.762;2022-11-20T03:58:59;100962.09;;;2.24;71.15
9009;BME280;62813;51.424;6.762;2022-11-20T04:01:31;100952.72;;;2.25;71.28
9009;BME280;62813;51.424;6.762;2022-11-20T04:03:58;100948.47;;;2.22;70.86
9009;BME280;62813;51.424;6.762;2022-11-20T04:06:32;100955.31;;;2.17;70.91
9009;BME280;62813;51.424;6.762;2022-11-20T04:08:59;100951.06;;;2.15;70.98
9009;BME280;62813;51.424;6.762;2022-11-20T04:11:31;100954.47;;;2.15;71.53
9009;BME280;62813;51.424;6.762;2022-11-20T04:14:00;100944.22;;;2.14;71.63
9009;BME280;62813;51.424;6.762;2022-11-20T04:16:29;100949.34;;;2.14;71.45
9009;BME280;62813;51.424;6.762;2022-11-20T04:18:57;100951.06;;;2.15;71.62
9009;BME280;62813;51.424;6.762;2022-11-20T04:21:25;100946.78;;;2.09;71.59
9009;BME280;62813;51.424;6.762;2022-11-20T04:23:52;100945.97;;;2.07;72.05
9009;BME280;62813;51.424;6.762;2022-11-20T04:26:21;100947.66;;;2.08;71.85
9009;BME280;62813;51.424;6.762;2022-11-20T04:28:48;100948.50;;;2.10;72.09
9009;BME280;62813;51.424;6.762;2022-11-20T04:31:17;100951.91;;;2.14;72.34
9009;BME280;62813;51.424;6.762;2022-11-20T04:33:44;100942.50;;;2.19;72.40
9009;BME280;62813;51.424;6.762;2022-11-20T04:36:21;100945.06;;;2.22;72.22
9009;BME280;62813;51.424;6.762;2022-11-20T04:38:52;100941.63;;;2.23;72.55
9009;BME280;62813;51.424;6.762;2022-11-20T04:41:25;100945.88;;;2.24;72.83
9009;BME280;62813;51.424;6.762;2022-11-20T04:43:54;100951.03;;;2.25;72.56
9009;BME280;62813;51.424;6.762;2022-11-20T04:46:27;100953.59;;;2.25;72.98
9009;BME280;62813;51.424;6.762;2022-11-20T04:48:54;100956.13;;;2.28;73.04
9009;BME280;62813;51.424;6.762;2022-11-20T04:51:21;100959.53;;;2.33;73.08
9009;BME280;62813;51.424;6.762;2022-11-20T04:53:47;100952.69;;;2.34;73.27
9009;BME280;62813;51.424;6.762;2022-11-20T04:56:14;100944.97;;;2.39;73.30
9009;BME280;62813;51.424;6.762;2022-11-20T04:58:41;100936.47;;;2.40;73.24
9009;BME280;62813;51.424;6.762;2022-11-20T05:01:14;100945.84;;;2.38;73.13
9009;BME280;62813;51.424;6.762;2022-11-20T05:03:42;100946.72;;;2.33;73.19
9009;BME280;62813;51.424;6.762;2022-11-20T05:06:11;100947.56;;;2.31;73.35
9009;BME280;62813;51.424;6.762;2022-11-20T05:08:38;100939.94;;;2.26;73.95
9009;BME280;62813;51.424;6.762;2022-11-20T05:11:07;100953.59;;;2.25;73.96
9009;BME280;62813;51.424;6.762;2022-11-20T05:13:34;100957.00;;;2.27;74.30
9009;BME280;62813;51.424;6.762;2022-11-20T05:16:03;100952.69;;;2.31;74.65
9009;BME280;62813;51.424;6.762;2022-11-20T05:18:30;100950.13;;;2.35;75.22
9009;BME280;62813;51.424;6.762;2022-11-20T05:20:58;100951.84;;;2.33;75.12
9009;BME280;62813;51.424;6.762;2022-11-20T05:23:25;100946.69;;;2.37;75.41
9009;BME280;62813;51.424;6.762;2022-11-20T05:25:53;100949.25;;;2.41;75.50
9009;BME280;62813;51.424;6.762;2022-11-20T05:28:25;100956.94;;;2.40;75.64
9009;BME280;62813;51.424;6.762;2022-11-20T05:30:52;100954.38;;;2.40;75.71
9009;BME280;62813;51.424;6.762;2022-11-20T05:33:18;100942.41;;;2.42;75.50
9009;BME280;62813;51.424;6.762;2022-11-20T05:35:45;100950.09;;;2.42;75.24
9009;BME280;62813;51.424;6.762;2022-11-20T05:38:12;100938.13;;;2.44;75.28
9009;BME280;62813;51.424;6.762;2022-11-20T05:40:38;100938.13;;;2.47;75.15
9009;BME280;62813;51.424;6.762;2022-11-20T05:43:05;100944.94;;;2.45;75.28
9009;BME280;62813;51.424;6.762;2022-11-20T05:45:31;100945.81;;;2.44;75.33
9009;BME280;62813;51.424;6.762;2022-11-20T05:47:59;100941.53;;;2.46;75.59
9009;BME280;62813;51.424;6.762;2022-11-20T05:50:29;100948.38;;;2.44;75.40
9009;BME280;62813;51.424;6.762;2022-11-20T05:52:59;100942.41;;;2.42;75.24
9009;BME280;62813;51.424;6.762;2022-11-20T05:55:26;100950.09;;;2.42;75.22
9009;BME280;62813;51.424;6.762;2022-11-20T05:57:54;100946.69;;;2.40;75.41
9009;BME280;62813;51.424;6.762;2022-11-20T06:00:21;100933.91;;;2.40;75.43
9009;BME280;62813;51.424;6.762;2022-11-20T06:02:48;100934.69;;;2.45;75.43
9009;BME280;62813;51.424;6.762;2022-11-20T06:05:15;100939.81;;;2.45;75.40
9009;BME280;62813;51.424;6.762;2022-11-20T06:07:41;100935.56;;;2.47;75.44
9009;BME280;62813;51.424;6.762;2022-11-20T06:10:08;100937.28;;;2.43;75.21
9009;BME280;62813;51.424;6.762;2022-11-20T06:12:35;100934.69;;;2.45;75.66
9009;BME280;62813;51.424;6.762;2022-11-20T06:15:01;100933.00;;;2.47;75.57
9009;BME280;62813;51.424;6.762;2022-11-20T06:17:28;100931.28;;;2.49;75.38
9009;BME280;62813;51.424;6.762;2022-11-20T06:19:55;100937.25;;;2.49;75.26
9009;BME280;62813;51.424;6.762;2022-11-20T06:22:21;100933.81;;;2.53;75.28
9009;BME280;62813;51.424;6.762;2022-11-20T06:24:48;100938.09;;;2.50;75.53
9009;BME280;62813;51.424;6.762;2022-11-20T06:27:15;100947.50;;;2.49;75.99
9009;BME280;62813;51.424;6.762;2022-11-20T06:29:42;100944.06;;;2.50;75.73
9009;BME280;62813;51.424;6.762;2022-11-20T06:32:08;100944.06;;;2.52;75.97
9009;BME280;62813;51.424;6.762;2022-11-20T06:34:35;100944.94;;;2.54;76.22
9009;BME280;62813;51.424;6.762;2022-11-20T06:37:01;100946.63;;;2.56;75.73
9009;BME280;62813;51.424;6.762;2022-11-20T06:39:28;100951.72;;;2.58;75.93
9009;BME280;62813;51.424;6.762;2022-11-20T06:41:54;100956.84;;;2.61;75.89
9009;BME280;62813;51.424;6.762;2022-11-20T06:44:24;100953.41;;;2.59;75.87
9009;BME280;62813;51.424;6.762;2022-11-20T06:46:51;100959.41;;;2.58;75.82
9009;BME280;62813;51.424;6.762;2022-11-20T06:49:18;100955.16;;;2.57;76.16
9009;BME280;62813;51.424;6.762;2022-11-20T06:51:45;100953.44;;;2.57;76.33
9009;BME280;62813;51.424;6.762;2022-11-20T06:54:12;100961.97;;;2.58;76.10
9009;BME280;62813;51.424;6.762;2022-11-20T06:56:38;100964.53;;;2.62;76.46
9009;BME280;62813;51.424;6.762;2022-11-20T06:59:06;100953.41;;;2.62;76.20
9009;BME280;62813;51.424;6.762;2022-11-20T07:01:33;100958.53;;;2.62;76.35
9009;BME280;62813;51.424;6.762;2022-11-20T07:03:59;100966.22;;;2.65;76.71
9009;BME280;62813;51.424;6.762;2022-11-20T07:06:26;100967.03;;;2.67;76.38
9009;BME280;62813;51.424;6.762;2022-11-20T07:08:52;100978.16;;;2.69;76.30
9009;BME280;62813;51.424;6.762;2022-11-20T07:11:19;100971.31;;;2.70;76.32
9009;BME280;62813;51.424;6.762;2022-11-20T07:13:45;100964.50;;;2.69;76.47
9009;BME280;62813;51.424;6.762;2022-11-20T07:16:12;100972.16;;;2.67;76.20
9009;BME280;62813;51.424;6.762;2022-11-20T07:18:38;100970.47;;;2.66;76.32
9009;BME280;62813;51.424;6.762;2022-11-20T07:21:07;100968.78;;;2.65;76.43
9009;BME280;62813;51.424;6.762;2022-11-20T07:23:35;100972.16;;;2.67;76.47
9009;BME280;62813;51.424;6.762;2022-11-20T07:26:06;100969.59;;;2.70;76.64
9009;BME280;62813;51.424;6.762;2022-11-20T07:28:33;100969.59;;;2.70;76.55
9009;BME280;62813;51.424;6.762;2022-11-20T07:31:00;100973.88;;;2.71;76.32
9009;BME280;62813;51.424;6.762;2022-11-20T07:33:27;100968.72;;;2.74;76.78
9009;BME280;62813;51.424;6.762;2022-11-20T07:35:53;100963.59;;;2.77;76.59
9009;BME280;62813;51.424;6.762;2022-11-20T07:38:20;100965.28;;;2.78;76.61
9009;BME280;62813;51.424;6.762;2022-11-20T07:40:47;100955.88;;;2.80;76.59
9009;BME280;62813;51.424;6.762;2022-11-20T07:43:13;100954.16;;;2.82;76.71
9009;BME280;62813;51.424;6.762;2022-11-20T07:45:40;100951.59;;;2.84;76.39
9009;BME280;62813;51.424;6.762;2022-11-20T07:48:06;100949.84;;;2.87;76.31
9009;BME280;62813;51.424;6.762;2022-11-20T07:50:33;100957.50;;;2.94;76.58
9009;BME280;62813;51.424;6.762;2022-11-20T07:53:04;100948.09;;;2.94;76.43
9009;BME280;62813;51.424;6.762;2022-11-20T07:55:31;100944.69;;;2.94;76.50
9009;BME280;62813;51.424;6.762;2022-11-20T07:57:58;100937.84;;;2.96;76.66
9009;BME280;62813;51.424;6.762;2022-11-20T08:00:26;100937.81;;;2.99;76.56
9009;BME280;62813;51.424;6.762;2022-11-20T08:02:53;100937.81;;;2.99;76.55
9009;BME280;62813;51.424;6.762;2022-11-20T08:05:20;100939.50;;;3.03;76.90
9009;BME280;62813;51.424;6.762;2022-11-20T08:07:47;100936.91;;;3.06;76.82
9009;BME280;62813;51.424;6.762;2022-11-20T08:10:15;100938.59;;;3.08;76.55
9009;BME280;62813;51.424;6.762;2022-11-20T08:12:54;100938.53;;;3.17;77.49
9009;BME280;62813;51.424;6.762;2022-11-20T08:15:40;100937.63;;;3.23;77.28
9009;BME280;62813;51.424;6.762;2022-11-20T08:18:11;100947.84;;;3.32;77.64
9009;BME280;62813;51.424;6.762;2022-11-20T08:21:01;100946.06;;;3.39;77.50
9009;BME280;62813;51.424;6.762;2022-11-20T08:23:27;100939.22;;;3.39;77.48
9009;BME280;62813;51.424;6.762;2022-11-20T08:25:54;100948.59;;;3.42;77.60
9009;BME280;62813;51.424;6.762;2022-11-20T08:28:20;100951.94;;;3.50;77.77
9009;BME280;62813;51.424;6.762;2022-11-20T08:30:48;100947.59;;;3.60;78.16
9009;BME280;62813;51.424;6.762;2022-11-20T08:33:17;100950.91;;;3.69;78.71
9009;BME280;62813;51.424;6.762;2022-11-20T08:35:44;100950.84;;;3.77;79.02
9009;BME280;62813;51.424;6.762;2022-11-20T08:38:10;100950.78;;;3.83;79.00
9009;BME280;62813;51.424;6.762;2022-11-20T08:40:37;100949.03;;;3.88;79.27
9009;BME280;62813;51.424;6.762;2022-11-20T08:43:04;100956.63;;;3.97;79.25
9009;BME280;62813;51.424;6.762;2022-11-20T08:45:30;100959.19;;;3.97;78.20
9009;BME280;62813;51.424;6.762;2022-11-20T08:48:01;100954.97;;;3.92;78.23
9009;BME280;62813;51.424;6.762;2022-11-20T08:50:28;100955.00;;;3.89;78.13
9009;BME280;62813;51.424;6.762;2022-11-20T08:53:05;100945.53;;;3.95;78.20
9009;BME280;62813;51.424;6.762;2022-11-20T08:55:32;100957.50;;;3.96;77.52
9009;BME280;62813;51.424;6.762;2022-11-20T08:58:03;100960.94;;;3.95;76.77
9009;BME280;62813;51.424;6.762;2022-11-20T09:00:29;100957.44;;;3.99;77.19
9009;BME280;62813;51.424;6.762;2022-11-20T09:02:56;100956.56;;;4.04;77.04
9009;BME280;62813;51.424;6.762;2022-11-20T09:05:23;100947.09;;;4.07;76.68
9009;BME280;62813;51.424;6.762;2022-11-20T09:07:50;100939.38;;;4.07;76.21
9009;BME280;62813;51.424;6.762;2022-11-20T09:10:16;100949.66;;;4.07;75.85
9009;BME280;62813;51.424;6.762;2022-11-20T09:12:51;100935.94;;;4.08;76.38
9009;BME280;62813;51.424;6.762;2022-11-20T09:15:18;100929.09;;;4.07;75.99
9009;BME280;62813;51.424;6.762;2022-11-20T09:18:02;100940.16;;;4.14;75.89
9009;BME280;62813;51.424;6.762;2022-11-20T09:20:31;100933.25;;;4.19;75.71
9009;BME280;62813;51.424;6.762;2022-11-20T09:22:58;100925.50;;;4.22;75.52
9009;BME280;62813;51.424;6.762;2022-11-20T09:25:24;100923.88;;;4.18;75.28
9009;BME280;62813;51.424;6.762;2022-11-20T09:27:58;100928.19;;;4.13;75.33
9009;BME280;62813;51.424;6.762;2022-11-20T09:30:26;100924.88;;;4.05;74.99
9009;BME280;62813;51.424;6.762;2022-11-20T09:32:53;100928.31;;;4.00;75.02
9009;BME280;62813;51.424;6.762;2022-11-20T09:35:20;100916.41;;;3.93;75.41
9009;BME280;62813;51.424;6.762;2022-11-20T09:37:46;100916.47;;;3.90;75.78
9009;BME280;62813;51.424;6.762;2022-11-20T09:40:20;100918.22;;;3.85;75.38
9009;BME280;62813;51.424;6.762;2022-11-20T09:45:54;100908.06;;;3.76;75.24
9009;BME280;62813;51.424;6.762;2022-11-20T09:48:26;100902.94;;;3.75;75.55
9009;BME280;62813;51.424;6.762;2022-11-20T09:54:26;100912.38;;;3.71;75.75
9009;BME280;62813;51.424;6.762;2022-11-20T09:56:59;100920.91;;;3.73;75.76
9009;BME280;62813;51.424;6.762;2022-11-20T09:59:48;100912.38;;;3.74;76.13
9009;BME280;62813;51.424;6.762;2022-11-20T10:05:11;100921.78;;;3.75;76.48
9009;BME280;62813;51.424;6.762;2022-11-20T10:16:03;100902.94;;;3.76;76.38
9009;BME280;62813;51.424;6.762;2022-11-20T10:24:04;100891.50;;;4.03;76.05
9009;BME280;62813;51.424;6.762;2022-11-20T10:26:49;100886.28;;;4.11;76.07
9009;BME280;62813;51.424;6.762;2022-11-20T10:29:34;100882.16;;;3.97;75.41
9009;BME280;62813;51.424;6.762;2022-11-20T10:32:19;100875.19;;;4.06;75.89
9009;BME280;62813;51.424;6.762;2022-11-20T10:37:43;100869.91;;;4.18;75.58
9009;BME280;62813;51.424;6.762;2022-11-20T10:40:46;100862.22;;;4.15;75.39
9009;BME280;62813;51.424;6.762;2022-11-20T10:43:28;100860.72;;;4.02;76.19
9009;BME280;62813;51.424;6.762;2022-11-20T10:46:01;100856.38;;;4.04;75.93
9009;BME280;62813;51.424;6.762;2022-11-20T10:48:31;100850.44;;;4.02;75.96
9009;BME280;62813;51.424;6.762;2022-11-20T10:51:08;100856.25;;;4.13;75.92
9009;BME280;62813;51.424;6.762;2022-11-20T10:56:40;100852.06;;;4.09;75.62
9009;BME280;62813;51.424;6.762;2022-11-20T11:02:20;100843.41;;;4.16;75.41
9009;BME280;62813;51.424;6.762;2022-11-20T11:04:50;100838.13;;;4.25;74.88
9009;BME280;62813;51.424;6.762;2022-11-20T11:07:37;100835.75;;;4.11;75.38
9009;BME280;62813;51.424;6.762;2022-11-20T11:13:20;100829.19;;;3.89;75.76
9009;BME280;62813;51.424;6.762;2022-11-20T11:15:46;100826.63;;;3.89;75.77
9009;BME280;62813;51.424;6.762;2022-11-20T11:18:26;100820.63;;;3.88;76.03
9009;BME280;62813;51.424;6.762;2022-11-20T11:20:54;100823.19;;;3.88;76.10
9009;BME280;62813;51.424;6.762;2022-11-20T11:23:31;100817.13;;;3.94;76.29
9009;BME280;62813;51.424;6.762;2022-11-20T11:26:00;100794.78;;;4.00;75.96
9009;BME280;62813;51.424;6.762;2022-11-20T11:28:28;100787.84;;;4.09;76.05
9009;BME280;62813;51.424;6.762;2022-11-20T11:30:54;100786.88;;;4.16;76.08
9009;BME280;62813;51.424;6.762;2022-11-20T11:33:27;100774.88;;;4.16;76.17
9009;BME280;62813;51.424;6.762;2022-11-20T11:36:14;100768.75;;;4.25;75.95
9009;BME280;62813;51.424;6.762;2022-11-20T11:38:44;100763.63;;;4.25;76.08
9009;BME280;62813;51.424;6.762;2022-11-20T11:41:20;100760.97;;;4.31;75.85
9009;BME280;62813;51.424;6.762;2022-11-20T11:43:52;100760.97;;;4.31;76.14
9009;BME280;62813;51.424;6.762;2022-11-20T11:46:40;100756.66;;;4.33;75.95
9009;BME280;62813;51.424;6.762;2022-11-20T11:54:53;100743.66;;;4.41;75.93
9009;BME280;62813;51.424;6.762;2022-11-20T12:00:15;100737.72;;;4.39;76.11
9009;BME280;62813;51.424;6.762;2022-11-20T12:05:20;100729.94;;;4.42;76.04
9009;BME280;62813;51.424;6.762;2022-11-20T12:07:54;100729.19;;;4.37;76.29
9009;BME280;62813;51.424;6.762;2022-11-20T12:10:39;100727.41;;;4.40;75.99
9009;BME280;62813;51.424;6.762;2022-11-20T12:15:56;100728.31;;;4.36;76.63
9009;BME280;62813;51.424;6.762;2022-11-20T12:18:22;100718.03;;;4.36;76.83
9009;BME280;62813;51.424;6.762;2022-11-20T12:31:56;100701.72;;;4.40;76.53
9009;BME280;62813;51.424;6.762;2022-11-20T12:39:49;100699.94;;;4.42;76.39
9009;BME280;62813;51.424;6.762;2022-11-20T12:42:35;100701.66;;;4.43;76.22
9009;BME280;62813;51.424;6.762;2022-11-20T12:45:35;100701.66;;;4.43;75.92
9009;BME280;62813;51.424;6.762;2022-11-20T12:48:22;100692.19;;;4.47;75.93
9009;BME280;62813;51.424;6.762;2022-11-20T12:57:13;100678.41;;;4.51;75.87
9009;BME280;62813;51.424;6.762;2022-11-20T13:00:02;100661.16;;;4.56;76.15
9009;BME280;62813;51.424;6.762;2022-11-20T13:03:03;100662.06;;;4.53;75.75
9009;BME280;62813;51.424;6.762;2022-11-20T13:05:55;100650.09;;;4.52;76.12
9009;BME280;62813;51.424;6.762;2022-11-20T13:08:29;100642.41;;;4.52;75.88
9009;BME280;62813;51.424;6.762;2022-11-20T13:13:45;100636.41;;;4.50;76.39
9009;BME280;62813;51.424;6.762;2022-11-20T13:16:19;100633.00;;;4.51;76.42
9009;BME280;62813;51.424;6.762;2022-11-20T13:18:51;100630.50;;;4.47;76.88
9009;BME280;62813;51.424;6.762;2022-11-20T13:21:39;100626.13;;;4.50;76.74
9009;BME280;62813;51.424;6.762;2022-11-20T13:24:22;100626.06;;;4.55;76.41
9009;BME280;62813;51.424;6.762;2022-11-20T13:27:05;100624.34;;;4.55;77.26
9009;BME280;62813;51.424;6.762;2022-11-20T13:29:33;100608.94;;;4.54;78.23
9009;BME280;62813;51.424;6.762;2022-11-20T13:32:17;100603.81;;;4.54;78.66
9009;BME280;62813;51.424;6.762;2022-11-20T13:34:56;100612.44;;;4.51;79.36
9009;BME280;62813;51.424;6.762;2022-11-20T13:40:11;100604.78;;;4.47;79.42
9009;BME280;62813;51.424;6.762;2022-11-20T13:42:45;100599.66;;;4.47;79.94
9009;BME280;62813;51.424;6.762;2022-11-20T13:45:40;100593.66;;;4.46;80.51
9009;BME280;62813;51.424;6.762;2022-11-20T13:48:21;100585.16;;;4.44;81.19
9009;BME280;62813;51.424;6.762;2022-11-20T13:51:04;100583.44;;;4.45;80.54
9009;BME280;62813;51.424;6.762;2022-11-20T14:01:53;100562.72;;;4.52;81.10
9009;BME280;62813;51.424;6.762;2022-11-20T14:04:26;100558.47;;;4.50;81.33
9009;BME280;62813;51.424;6.762;2022-11-20T14:06:55;100560.16;;;4.52;81.08
9009;BME280;62813;51.424;6.762;2022-11-20T14:09:31;100553.22;;;4.56;81.20
9009;BME280;62813;51.424;6.762;2022-11-20T14:11:58;100547.19;;;4.59;81.85
9009;BME280;62813;51.424;6.762;2022-11-20T14:14:27;100547.16;;;4.60;81.78
9009;BME280;62813;51.424;6.762;2022-11-20T14:17:52;100533.44;;;4.60;81.98
9009;BME280;62813;51.424;6.762;2022-11-20T14:19:54;100526.63;;;4.59;82.55
9009;BME280;62813;51.424;6.762;2022-11-20T14:22:25;100516.28;;;4.60;82.25
9009;BME280;62813;51.424;6.762;2022-11-20T14:27:44;100492.25;;;4.63;82.67
9009;BME280;62813;51.424;6.762;2022-11-20T14:30:20;100485.38;;;4.63;82.70
9009;BME280;62813;51.424;6.762;2022-11-20T14:32:48;100493.06;;;4.65;82.87
9009;BME280;62813;51.424;6.762;2022-11-20T14:35:25;100493.91;;;4.65;82.95
9009;BME280;62813;51.424;6.762;2022-11-20T14:37:53;100489.63;;;4.64;83.52
9009;BME280;62813;51.424;6.762;2022-11-20T14:40:33;100481.97;;;4.63;83.39
9009;BME280;62813;51.424;6.762;2022-11-20T14:45:58;100476.06;;;4.59;83.33
9009;BME280;62813;51.424;6.762;2022-11-20T14:48:32;100469.19;;;4.60;83.43
9009;BME280;62813;51.424;6.762;2022-11-20T14:51:01;100470.06;;;4.59;83.47
9009;BME280;62813;51.424;6.762;2022-11-20T14:53:28;100462.41;;;4.55;83.82
9009;BME280;62813;51.424;6.762;2022-11-20T14:56:00;100457.28;;;4.54;84.02
9009;BME280;62813;51.424;6.762;2022-11-20T14:58:30;100453.00;;;4.54;84.00
9009;BME280;62813;51.424;6.762;2022-11-20T15:01:03;100453.03;;;4.53;84.40
9009;BME280;62813;51.424;6.762;2022-11-20T15:03:38;100446.09;;;4.56;84.19
9009;BME280;62813;51.424;6.762;2022-11-20T15:06:07;100444.41;;;4.55;84.39